createdAt,value
2018-02-03T00:01:08.089Z,64.30
2018-02-03T00:03:36.384Z,64.20
2018-02-03T00:06:04.488Z,64.10
2018-02-03T00:08:32.610Z,64.60
2018-02-03T00:11:00.729Z,64.50
2018-02-03T00:13:28.852Z,64.60
2018-02-03T00:15:57.729Z,64.60
2018-02-03T00:18:26.628Z,64.50
2018-02-03T00:20:55.514Z,64.80
2018-02-03T00:23:24.403Z,65.00
2018-02-03T00:25:53.295Z,64.80
2018-02-03T00:28:22.179Z,64.70
2018-02-03T00:30:51.058Z,64.70
2018-02-03T00:33:19.951Z,64.20
2018-02-03T00:35:48.845Z,64.30
2018-02-03T00:38:17.734Z,64.00
2018-02-03T00:40:46.660Z,64.40
2018-02-03T00:43:15.526Z,64.50
2018-02-03T00:45:44.511Z,64.30
2018-02-03T00:48:13.453Z,64.40
2018-02-03T00:50:41.575Z,64.40
2018-02-03T00:53:10.464Z,64.20
2018-02-03T00:55:39.354Z,64.50
2018-02-03T00:58:08.260Z,64.50
2018-02-03T01:00:36.422Z,64.50
2018-02-03T01:03:05.306Z,64.80
2018-02-03T01:05:34.191Z,64.40
2018-02-03T01:08:03.089Z,64.70
2018-02-03T01:10:31.975Z,64.30
2018-02-03T01:13:00.865Z,64.50
2018-02-03T01:15:29.777Z,64.80
2018-02-03T01:17:57.890Z,64.80
2018-02-03T01:20:26.048Z,64.80
2018-02-03T01:22:54.134Z,64.70
2018-02-03T01:25:22.337Z,64.40
2018-02-03T01:27:51.316Z,64.60
2018-02-03T01:30:19.439Z,64.60
2018-02-03T01:32:47.587Z,65.10
2018-02-03T01:35:16.461Z,64.60
2018-02-03T01:37:45.375Z,65.00
2018-02-03T01:40:14.250Z,65.10
2018-02-03T01:42:43.135Z,65.20
2018-02-03T01:45:12.018Z,65.10
2018-02-03T01:47:52.147Z,65.10
2018-02-03T01:50:20.249Z,65.10
2018-02-03T01:52:49.132Z,65.00
2018-02-03T01:55:17.278Z,64.90
2018-02-03T01:57:45.397Z,65.50
2018-02-03T02:00:14.436Z,65.90
2018-02-03T02:02:42.564Z,65.30
2018-02-03T02:05:10.675Z,65.50
2018-02-03T02:07:38.951Z,65.60
2018-02-03T02:10:07.775Z,65.70
2018-02-03T02:12:35.953Z,65.60
2018-02-03T02:15:04.833Z,65.90
2018-02-03T02:17:32.945Z,65.90
2018-02-03T02:20:01.098Z,65.90
2018-02-03T02:22:29.984Z,65.80
2018-02-03T02:24:58.919Z,65.80
2018-02-03T02:27:27.045Z,65.70
2018-02-03T02:29:55.951Z,65.40
2018-02-03T02:32:24.079Z,65.40
2018-02-03T02:34:52.218Z,65.20
2018-02-03T02:37:20.354Z,65.40
2018-02-03T02:39:49.233Z,65.40
2018-02-03T02:42:17.369Z,65.40
2018-02-03T02:44:45.487Z,65.40
2018-02-03T02:47:14.380Z,65.60
2018-02-03T02:49:43.384Z,65.50
2018-02-03T02:52:11.533Z,65.50
2018-02-03T02:54:40.418Z,65.70
2018-02-03T02:57:09.350Z,66.00
2018-02-03T02:59:38.208Z,65.40
2018-02-03T03:02:07.091Z,65.60
2018-02-03T03:04:36.095Z,65.80
2018-02-03T03:07:04.975Z,65.70
2018-02-03T03:09:33.877Z,65.90
2018-02-03T03:12:02.747Z,66.00
2018-02-03T03:14:31.635Z,66.30
2018-02-03T03:16:59.760Z,65.70
2018-02-03T03:19:28.031Z,65.80
2018-02-03T03:21:56.930Z,66.20
2018-02-03T03:24:25.103Z,66.20
2018-02-03T03:26:53.211Z,66.50
2018-02-03T03:29:21.328Z,66.70
2018-02-03T03:31:49.444Z,66.60
2018-02-03T03:34:17.633Z,66.60
2018-02-03T03:36:45.750Z,66.50
2018-02-03T03:39:13.925Z,66.40
2018-02-03T03:41:42.799Z,66.80
2018-02-03T03:44:11.696Z,67.10
2018-02-03T03:46:39.826Z,67.10
2018-02-03T03:49:07.934Z,67.10
2018-02-03T03:51:36.061Z,67.10
2018-02-03T03:54:05.678Z,67.20
2018-02-03T03:56:33.802Z,67.20
2018-02-03T03:59:01.922Z,67.20
2018-02-03T04:01:30.078Z,67.40
2018-02-03T04:03:58.273Z,67.20
2018-02-03T04:06:27.170Z,67.60
2018-02-03T04:08:56.069Z,67.80
2018-02-03T04:11:25.798Z,68.10
2018-02-03T04:14:00.202Z,68.10
2018-02-03T04:16:29.091Z,67.90
2018-02-03T04:18:58.007Z,67.90
2018-02-03T04:21:26.869Z,68.00
2018-02-03T04:23:55.775Z,67.80
2018-02-03T04:26:23.925Z,67.90
2018-02-03T04:28:52.809Z,68.00
2018-02-03T04:31:21.694Z,67.90
2018-02-03T04:33:49.818Z,67.80
2018-02-03T04:36:17.984Z,68.20
2018-02-03T04:38:46.977Z,68.40
2018-02-03T04:41:15.094Z,68.40
2018-02-03T04:43:43.192Z,68.40
2018-02-03T04:46:11.339Z,68.30
2018-02-03T04:48:39.466Z,68.40
2018-02-03T04:51:08.523Z,68.40
2018-02-03T04:53:37.421Z,68.80
2018-02-03T04:56:06.311Z,68.70
2018-02-03T04:58:35.298Z,68.70
2018-02-03T05:01:04.172Z,68.70
2018-02-03T05:03:32.314Z,68.70
2018-02-03T05:06:00.432Z,68.70
2018-02-03T05:08:29.331Z,68.70
2018-02-03T05:10:57.452Z,68.70
2018-02-03T05:13:25.577Z,68.80
2018-02-03T05:15:53.731Z,68.70
2018-02-03T05:18:24.457Z,69.00
2018-02-03T05:20:52.646Z,69.00
2018-02-03T05:23:21.635Z,69.20
2018-02-03T05:25:50.536Z,69.20
2018-02-03T05:28:18.657Z,69.10
2018-02-03T05:30:46.781Z,69.50
2018-02-03T05:33:15.675Z,69.30
2018-02-03T05:35:43.799Z,69.30
2018-02-03T05:38:11.955Z,69.50
2018-02-03T05:40:40.095Z,69.80
2018-02-03T05:43:08.218Z,69.80
2018-02-03T05:45:36.357Z,69.70
2018-02-03T05:48:04.488Z,69.70
2018-02-03T05:50:34.109Z,69.80
2018-02-03T05:53:03.002Z,69.80
2018-02-03T05:55:31.289Z,69.80
2018-02-03T05:58:01.651Z,69.80
2018-02-03T06:00:29.819Z,69.80
2018-02-03T06:02:57.922Z,69.70
2018-02-03T06:05:26.790Z,70.10
2018-02-03T06:07:54.922Z,69.50
2018-02-03T06:10:23.052Z,69.60
2018-02-03T06:12:51.195Z,69.70
2018-02-03T06:15:19.313Z,69.90
2018-02-03T06:17:48.218Z,69.80
2018-02-03T06:20:16.332Z,69.90
2018-02-03T06:22:44.438Z,70.00
2018-02-03T06:25:13.442Z,69.80
2018-02-03T06:27:41.595Z,69.80
2018-02-03T06:30:10.610Z,69.80
2018-02-03T06:32:38.732Z,69.40
2018-02-03T06:35:06.869Z,69.70
2018-02-03T06:37:34.983Z,69.70
2018-02-03T06:40:03.183Z,69.80
2018-02-03T06:42:32.172Z,69.90
2018-02-03T06:45:01.066Z,69.80
2018-02-03T06:47:29.211Z,69.80
2018-02-03T06:49:57.323Z,70.20
2018-02-03T06:52:26.379Z,70.20
2018-02-03T06:54:54.535Z,70.30
2018-02-03T06:57:22.655Z,70.00
2018-02-03T06:59:51.595Z,69.50
2018-02-03T07:02:19.737Z,70.10
2018-02-03T07:04:47.922Z,69.50
2018-02-03T07:07:16.065Z,69.90
2018-02-03T07:09:44.978Z,70.20
2018-02-03T07:12:13.104Z,70.30
2018-02-03T07:14:41.231Z,70.30
2018-02-03T07:17:09.346Z,70.40
2018-02-03T07:19:37.485Z,70.30
2018-02-03T07:22:05.631Z,70.10
2018-02-03T07:24:34.503Z,69.80
2018-02-03T07:27:03.399Z,69.70
2018-02-03T07:29:32.286Z,69.80
2018-02-03T07:32:01.182Z,69.70
2018-02-03T07:34:30.098Z,70.00
2018-02-03T07:36:58.202Z,70.10
2018-02-03T07:39:26.344Z,70.10
2018-02-03T07:41:54.441Z,70.50
2018-02-03T07:44:22.596Z,70.60
2018-02-03T07:46:50.714Z,70.90
2018-02-03T07:49:19.604Z,71.00
2018-02-03T07:51:48.496Z,70.90
2018-02-03T07:54:17.380Z,70.60
2018-02-03T07:56:46.285Z,70.90
2018-02-03T07:59:15.271Z,71.20
2018-02-03T08:01:44.174Z,71.30
2018-02-03T08:04:12.291Z,71.30
2018-02-03T08:06:40.418Z,71.10
2018-02-03T08:09:08.553Z,72.30
2018-02-03T08:11:36.667Z,71.70
2018-02-03T08:14:05.557Z,72.20
2018-02-03T08:16:33.690Z,72.30
2018-02-03T08:19:01.833Z,72.60
2018-02-03T08:21:29.955Z,72.30
2018-02-03T08:23:58.833Z,72.40
2018-02-03T08:26:26.977Z,72.40
2018-02-03T08:28:55.109Z,71.80
2018-02-03T08:31:23.271Z,72.00
2018-02-03T08:33:52.148Z,72.00
2018-02-03T08:36:21.052Z,71.80
2018-02-03T08:38:49.945Z,72.30
2018-02-03T08:41:18.085Z,72.30
2018-02-03T08:43:46.291Z,72.30
2018-02-03T08:46:15.177Z,72.00
2018-02-03T08:48:44.156Z,71.40
2018-02-03T08:51:13.057Z,71.50
2018-02-03T08:53:41.991Z,71.50
2018-02-03T08:56:10.127Z,71.50
2018-02-03T08:58:39.033Z,71.00
2018-02-03T09:01:07.180Z,71.00
2018-02-03T09:03:36.184Z,71.20
2018-02-03T09:06:04.323Z,71.20
2018-02-03T09:08:32.511Z,71.20
2018-02-03T09:11:00.710Z,71.20
2018-02-03T09:13:28.840Z,71.20
2018-02-03T09:15:56.961Z,70.90
2018-02-03T09:18:25.106Z,70.20
2018-02-03T09:20:53.401Z,70.10
2018-02-03T09:23:21.526Z,70.60
2018-02-03T09:25:51.187Z,70.40
2018-02-03T09:28:19.333Z,70.40
2018-02-03T09:30:48.210Z,71.00
2018-02-03T09:33:16.330Z,71.00
2018-02-03T09:35:44.476Z,71.70
2018-02-03T09:38:13.457Z,71.70
2018-02-03T09:40:42.362Z,71.80
2018-02-03T09:43:10.497Z,71.80
2018-02-03T09:45:38.658Z,72.10
2018-02-03T09:48:06.782Z,72.00
2018-02-03T09:50:34.918Z,72.00
2018-02-03T09:53:03.098Z,71.50
2018-02-03T09:55:31.200Z,71.90
2018-02-03T09:57:59.618Z,71.50
2018-02-03T10:00:27.741Z,71.30
2018-02-03T10:02:55.876Z,71.30
2018-02-03T10:05:24.035Z,71.10
2018-02-03T10:07:52.156Z,70.90
2018-02-03T10:10:21.135Z,70.80
2018-02-03T10:12:50.037Z,71.10
2018-02-03T10:15:19.063Z,70.90
2018-02-03T10:17:47.158Z,70.80
2018-02-03T10:20:15.294Z,70.40
2018-02-03T10:22:43.602Z,70.30
2018-02-03T10:25:11.752Z,71.00
2018-02-03T10:27:39.862Z,71.00
2018-02-03T10:30:08.015Z,71.00
2018-02-03T10:32:36.144Z,71.40
2018-02-03T10:35:04.265Z,70.90
2018-02-03T10:37:32.404Z,71.30
2018-02-03T10:40:00.532Z,70.80
2018-02-03T10:42:28.671Z,70.40
2018-02-03T10:44:56.902Z,70.10
2018-02-03T10:47:25.781Z,70.50
2018-02-03T10:49:54.768Z,70.30
2018-02-03T10:52:23.678Z,70.80
2018-02-03T10:54:52.584Z,71.00
2018-02-03T10:57:20.696Z,71.00
2018-02-03T10:59:48.922Z,71.30
2018-02-03T11:02:17.792Z,71.70
2018-02-03T11:04:46.888Z,71.70
2018-02-03T11:07:15.783Z,71.30
2018-02-03T11:09:43.907Z,71.30
2018-02-03T11:12:12.045Z,71.60
2018-02-03T11:14:40.920Z,71.60
2018-02-03T11:17:09.080Z,71.50
2018-02-03T11:19:37.943Z,71.10
2018-02-03T11:22:06.062Z,71.10
2018-02-03T11:24:34.224Z,71.20
2018-02-03T11:27:03.097Z,70.70
2018-02-03T11:29:32.007Z,70.70
2018-02-03T11:32:00.137Z,70.70
2018-02-03T11:34:28.270Z,70.40
2018-02-03T11:36:56.395Z,70.20
2018-02-03T11:39:24.627Z,69.70
2018-02-03T11:41:52.723Z,69.70
2018-02-03T11:44:20.881Z,70.40
2018-02-03T11:46:49.105Z,70.20
2018-02-03T11:49:17.992Z,69.30
2018-02-03T11:51:46.904Z,69.00
2018-02-03T11:54:15.029Z,69.00
2018-02-03T11:56:43.170Z,69.00
2018-02-03T11:59:11.289Z,69.00
2018-02-03T12:01:39.425Z,68.60
2018-02-03T12:04:07.541Z,68.50
2018-02-03T12:06:36.432Z,70.00
2018-02-03T12:09:05.348Z,71.40
2018-02-03T12:11:33.479Z,71.40
2018-02-03T12:14:03.121Z,71.50
2018-02-03T12:16:31.264Z,71.50
2018-02-03T12:19:00.914Z,70.00
2018-02-03T12:21:29.024Z,70.00
2018-02-03T12:23:58.656Z,68.30
2018-02-03T12:26:26.765Z,68.20
2018-02-03T12:28:54.878Z,66.60
2018-02-03T12:31:23.870Z,66.70
2018-02-03T12:33:52.080Z,66.20
2018-02-03T12:36:20.268Z,66.50
2018-02-03T12:38:49.136Z,64.90
2018-02-03T12:41:18.022Z,63.20
2018-02-03T12:43:46.903Z,63.70
2018-02-03T12:46:15.799Z,63.80
2018-02-03T12:48:44.713Z,64.30
2018-02-03T12:51:12.832Z,64.30
2018-02-03T12:53:40.975Z,65.60
2018-02-03T12:56:09.097Z,65.70
2018-02-03T12:58:37.990Z,65.60
2018-02-03T13:01:06.116Z,66.10
2018-02-03T13:03:34.245Z,67.00
2018-02-03T13:06:03.167Z,67.50
2018-02-03T13:08:31.275Z,67.50
2018-02-03T13:10:59.479Z,67.40
2018-02-03T13:13:27.590Z,66.10
2018-02-03T13:15:55.743Z,63.70
2018-02-03T13:18:23.893Z,63.50
2018-02-03T13:20:52.007Z,63.00
2018-02-03T13:23:20.150Z,63.70
2018-02-03T13:25:49.035Z,63.60
2018-02-03T13:28:18.020Z,62.60
2018-02-03T13:30:46.923Z,62.50
2018-02-03T13:33:15.873Z,62.50
2018-02-03T13:35:43.977Z,62.50
2018-02-03T13:38:12.861Z,61.70
2018-02-03T13:40:41.766Z,62.40
2018-02-03T13:43:10.051Z,62.40
2018-02-03T13:45:38.198Z,62.00
2018-02-03T13:48:06.314Z,62.90
2018-02-03T13:50:34.445Z,63.30
2018-02-03T13:53:03.341Z,63.70
2018-02-03T13:55:32.270Z,63.50
2018-02-03T13:58:00.377Z,63.50
2018-02-03T14:00:28.502Z,63.80
2018-02-03T14:02:56.639Z,62.90
2018-02-03T14:05:25.518Z,63.00
2018-02-03T14:07:53.669Z,63.00
2018-02-03T14:10:21.801Z,63.00
2018-02-03T14:12:50.697Z,63.30
2018-02-03T14:15:18.814Z,63.30
2018-02-03T14:17:46.941Z,63.10
2018-02-03T14:20:15.067Z,62.20
2018-02-03T14:22:43.200Z,62.50
2018-02-03T14:25:11.421Z,62.50
2018-02-03T14:27:40.299Z,63.20
2018-02-03T14:30:08.418Z,63.20
2018-02-03T14:32:36.545Z,63.40
2018-02-03T14:35:04.762Z,63.60
2018-02-03T14:37:33.632Z,64.00
2018-02-03T14:40:01.763Z,64.10
2018-02-03T14:42:29.900Z,64.30
2018-02-03T14:44:58.006Z,64.10
2018-02-03T14:47:26.120Z,64.30
2018-02-03T14:49:55.044Z,64.90
2018-02-03T14:52:23.168Z,64.80
2018-02-03T14:54:52.112Z,65.40
2018-02-03T14:57:20.223Z,65.40
2018-02-03T14:59:49.222Z,65.40
2018-02-03T15:02:18.126Z,65.50
2018-02-03T15:04:47.022Z,65.50
2018-02-03T15:07:15.189Z,65.50
2018-02-03T15:09:44.076Z,66.10
2018-02-03T15:12:13.044Z,66.30
2018-02-03T15:14:41.959Z,66.30
2018-02-03T15:17:10.843Z,66.90
2018-02-03T15:19:39.837Z,67.00
2018-02-03T15:22:08.737Z,67.20
2018-02-03T15:24:37.642Z,67.40
2018-02-03T15:27:05.777Z,67.40
2018-02-03T15:29:33.890Z,67.40
2018-02-03T15:32:02.016Z,68.00
2018-02-03T15:34:30.248Z,67.70
2018-02-03T15:36:58.367Z,68.80
2018-02-03T15:39:27.271Z,68.00
2018-02-03T15:41:56.186Z,67.90
2018-02-03T15:44:24.339Z,67.80
2018-02-03T15:46:52.426Z,68.20
2018-02-03T15:49:20.559Z,68.00
2018-02-03T15:51:48.675Z,68.20
2018-02-03T15:54:16.826Z,67.80
2018-02-03T15:56:45.717Z,68.60
2018-02-03T15:59:14.659Z,68.10
2018-02-03T16:01:42.763Z,68.10
2018-02-03T16:04:11.651Z,67.30
2018-02-03T16:06:39.781Z,67.30
2018-02-03T16:09:07.944Z,67.40
2018-02-03T16:11:36.075Z,67.40
2018-02-03T16:14:04.204Z,67.50
2018-02-03T16:16:32.325Z,67.90
2018-02-03T16:19:01.227Z,67.90
2018-02-03T16:21:30.105Z,68.00
2018-02-03T16:23:58.305Z,68.00
2018-02-03T16:26:27.192Z,68.30
2018-02-03T16:28:55.315Z,68.30
2018-02-03T16:33:56.938Z,68.40
2018-02-03T16:36:25.072Z,68.50
2018-02-03T16:38:53.995Z,68.90
2018-02-03T16:41:22.890Z,69.00
2018-02-03T16:43:51.085Z,69.00
2018-02-03T16:46:19.205Z,69.40
2018-02-03T16:48:48.094Z,71.40
2018-02-03T16:51:16.986Z,74.20
2018-02-03T16:53:45.901Z,75.60
2018-02-03T16:56:14.049Z,75.00
2018-02-03T16:58:42.946Z,79.90
2018-02-03T17:01:11.832Z,82.30
2018-02-03T17:03:39.988Z,82.20
2018-02-03T17:06:08.874Z,82.30
2018-02-03T17:08:36.998Z,82.20
2018-02-03T17:11:05.136Z,82.30
2018-02-03T17:13:34.074Z,81.90
2018-02-03T17:16:02.201Z,81.80
2018-02-03T17:18:31.103Z,82.50
2018-02-03T17:20:59.242Z,82.40
2018-02-03T17:23:27.356Z,82.50
2018-02-03T17:25:55.534Z,81.80
2018-02-03T17:28:23.667Z,82.00
2018-02-03T17:30:53.324Z,81.70
2018-02-03T17:33:21.421Z,82.30
2018-02-03T17:35:49.576Z,81.60
2018-02-03T17:38:23.249Z,82.50
2018-02-03T17:40:51.379Z,81.90
2018-02-03T17:43:19.530Z,81.90
2018-02-03T17:45:53.478Z,82.10
2018-02-03T17:48:21.596Z,82.40
2018-02-03T17:50:49.694Z,83.10
2018-02-03T17:53:17.912Z,83.20
2018-02-03T17:55:52.531Z,82.80
2018-02-03T17:58:21.478Z,84.00
2018-02-03T18:00:49.595Z,83.40
2018-02-03T18:03:17.731Z,83.10
2018-02-03T18:05:45.903Z,81.80
2018-02-03T18:08:14.027Z,81.30
2018-02-03T18:10:42.157Z,81.40
2018-02-03T18:13:10.285Z,81.30
2018-02-03T18:15:38.410Z,80.90
2018-02-03T18:18:07.292Z,81.70
2018-02-03T18:20:36.217Z,82.10
2018-02-03T18:23:04.350Z,81.50
2018-02-03T18:25:32.508Z,81.60
2018-02-03T18:28:00.644Z,81.30
2018-02-03T18:30:28.793Z,81.30
2018-02-03T18:32:57.709Z,80.90
2018-02-03T18:35:25.807Z,80.90
2018-02-03T18:37:53.932Z,80.50
2018-02-03T18:40:22.062Z,80.40
2018-02-03T18:42:50.247Z,80.80
2018-02-03T18:45:30.265Z,80.60
2018-02-03T18:47:58.447Z,80.20
2018-02-03T18:50:26.544Z,79.60
2018-02-03T18:52:54.706Z,79.90
2018-02-03T18:55:24.368Z,79.40
2018-02-03T18:57:52.510Z,78.80
2018-02-03T19:00:21.434Z,78.10
2018-02-03T19:02:49.587Z,78.10
2018-02-03T19:05:18.525Z,77.90
2018-02-03T19:07:46.653Z,78.00
2018-02-03T19:10:15.580Z,78.50
2018-02-03T19:12:43.704Z,78.60
2018-02-03T19:15:12.593Z,78.40
2018-02-03T19:17:41.499Z,78.50
2018-02-03T19:20:09.694Z,78.60
2018-02-03T19:22:37.827Z,78.70
2018-02-03T19:25:06.742Z,78.40
2018-02-03T19:27:34.875Z,78.40
2018-02-03T19:30:03.008Z,78.10
2018-02-03T19:32:31.134Z,78.30
2018-02-03T19:35:00.034Z,78.30
2018-02-03T19:37:28.954Z,78.40
2018-02-03T19:39:57.101Z,78.40
2018-02-03T19:42:25.236Z,78.60
2018-02-03T19:44:53.407Z,78.70
2018-02-03T19:47:21.544Z,78.70
2018-02-03T19:49:49.806Z,78.90
2018-02-03T19:52:17.940Z,79.50
2018-02-03T19:54:46.114Z,79.90
2018-02-03T19:57:14.303Z,79.80
2018-02-03T19:59:43.205Z,80.30
2018-02-03T20:02:11.335Z,80.30
2018-02-03T20:04:39.485Z,80.50
2018-02-03T20:07:07.637Z,80.20
2018-02-03T20:09:35.773Z,80.60
2018-02-03T20:12:03.883Z,80.50
2018-02-03T20:14:32.022Z,80.50
2018-02-03T20:17:00.916Z,80.50
2018-02-03T20:19:29.890Z,80.20
2018-02-03T20:21:58.045Z,80.20
2018-02-03T20:24:26.201Z,80.10
2018-02-03T20:26:54.410Z,80.20
2018-02-03T20:29:22.545Z,79.50
2018-02-03T20:31:50.735Z,79.80
2018-02-03T20:34:18.878Z,80.50
2018-02-03T20:36:47.046Z,80.00
2018-02-03T20:39:15.237Z,79.90
2018-02-03T20:41:43.417Z,79.90
2018-02-03T20:44:11.615Z,79.90
2018-02-03T20:46:41.304Z,80.00
2018-02-03T20:49:09.454Z,80.00
2018-02-03T20:51:37.654Z,80.10
2018-02-03T20:54:05.838Z,80.10
2018-02-03T20:56:34.008Z,80.00
2018-02-03T20:59:02.177Z,80.00
2018-02-03T21:01:30.383Z,80.10
2018-02-03T21:03:58.486Z,80.20
2018-02-03T21:06:26.665Z,80.20
2018-02-03T21:08:54.825Z,80.20
2018-02-03T21:11:22.994Z,80.20
2018-02-03T21:13:51.189Z,80.10
2018-02-03T21:16:19.350Z,80.00
2018-02-03T21:18:47.551Z,80.00
2018-02-03T21:21:15.678Z,80.00
2018-02-03T21:23:44.587Z,80.50
2018-02-03T21:26:12.738Z,79.90
2018-02-03T21:28:41.676Z,80.00
2018-02-03T21:31:09.822Z,80.00
2018-02-03T21:33:38.046Z,79.90
2018-02-03T21:36:06.247Z,79.90
2018-02-03T21:38:34.416Z,79.90
2018-02-03T21:41:03.443Z,79.70
2018-02-03T21:43:31.601Z,79.70
2018-02-03T21:45:59.832Z,79.70
2018-02-03T21:48:28.773Z,79.50
2018-02-03T21:50:57.403Z,79.50
2018-02-03T21:53:25.566Z,79.70
2018-02-03T21:55:53.712Z,79.50
2018-02-03T21:58:21.953Z,79.60
2018-02-03T22:00:50.150Z,79.70
2018-02-03T22:03:18.331Z,79.70
2018-02-03T22:05:46.517Z,79.90
2018-02-03T22:08:15.401Z,80.20
2018-02-03T22:10:43.528Z,80.20
2018-02-03T22:13:12.458Z,80.20
2018-02-03T22:15:40.620Z,80.20
2018-02-03T22:18:08.730Z,80.30
2018-02-03T22:20:38.444Z,80.30
2018-02-03T22:23:06.657Z,80.30
2018-02-03T22:25:34.801Z,80.30
2018-02-03T22:28:03.714Z,80.70
2018-02-03T22:30:31.843Z,80.00
2018-02-03T22:32:59.969Z,80.20
2018-02-03T22:35:28.229Z,80.10
2018-02-03T22:37:57.156Z,80.40
2018-02-03T22:40:25.286Z,80.40
2018-02-03T22:42:54.244Z,80.20
2018-02-03T22:45:22.336Z,80.30
2018-02-03T22:47:50.454Z,80.20
2018-02-03T22:50:18.594Z,80.40
2018-02-03T22:52:47.477Z,80.50
2018-02-03T22:55:16.379Z,80.40
2018-02-03T22:57:45.268Z,81.30
2018-02-03T23:00:16.073Z,80.80
2018-02-03T23:02:49.870Z,80.80
2018-02-03T23:05:18.032Z,80.90
2018-02-03T23:07:46.171Z,81.10
2018-02-03T23:10:15.105Z,81.40
2018-02-03T23:12:43.277Z,81.40
2018-02-03T23:15:11.401Z,81.50
2018-02-03T23:17:39.548Z,81.60
2018-02-03T23:20:07.774Z,81.90
2018-02-03T23:22:35.892Z,81.90
2018-02-03T23:25:04.790Z,81.90
2018-02-03T23:27:33.043Z,81.90
2018-02-03T23:30:01.152Z,82.00
2018-02-03T23:32:30.052Z,83.50
2018-02-03T23:34:58.181Z,82.80
2018-02-03T23:37:26.302Z,82.70
2018-02-03T23:39:54.444Z,82.60
2018-02-03T23:42:23.353Z,82.40
2018-02-03T23:44:52.266Z,82.60
2018-02-03T23:47:20.390Z,82.50
2018-02-03T23:49:49.297Z,83.10
2018-02-03T23:52:17.439Z,83.10
2018-02-03T23:54:45.570Z,83.10
2018-02-03T23:57:13.684Z,82.70
2018-02-03T23:59:41.817Z,82.70
